createdAt,value
2023-04-16T00:00:50.767Z,97845.13
2023-04-16T00:03:17.667Z,97848.66
2023-04-16T00:05:44.454Z,97847.41
2023-04-16T00:08:11.349Z,97848.81
2023-04-16T00:10:38.408Z,97828.28
2023-04-16T00:13:05.143Z,97843.50
2023-04-16T00:15:31.911Z,97836.53
2023-04-16T00:17:58.728Z,97848.56
2023-04-16T00:20:25.405Z,97845.09
2023-04-16T00:22:52.162Z,97846.03
2023-04-16T00:25:18.743Z,97843.66
2023-04-16T00:27:45.471Z,97843.78
2023-04-16T00:30:12.422Z,97845.41
2023-04-16T00:32:39.327Z,97822.38
2023-04-16T00:35:06.656Z,97847.44
2023-04-16T00:37:33.434Z,97846.13
2023-04-16T00:40:01.167Z,97848.22
2023-04-16T00:42:28.161Z,97849.19
2023-04-16T00:44:55.315Z,97852.69
2023-04-16T00:47:22.415Z,97827.00
2023-04-16T00:49:49.367Z,97854.06
2023-04-16T00:52:16.313Z,97847.38
2023-04-16T00:54:43.326Z,97846.84
2023-04-16T00:57:10.805Z,97850.22
2023-04-16T00:59:37.731Z,97847.66
2023-04-16T01:02:04.751Z,97847.88
2023-04-16T01:04:31.804Z,97827.75
2023-04-16T01:06:58.569Z,97842.31
2023-04-16T01:09:25.260Z,97843.34
2023-04-16T01:11:52.113Z,97841.09
2023-04-16T01:14:18.800Z,97840.47
2023-04-16T01:16:45.602Z,97840.56
2023-04-16T01:19:22.521Z,97842.53
2023-04-16T01:21:51.715Z,97840.97
2023-04-16T01:24:18.383Z,97842.22
2023-04-16T01:26:45.220Z,97837.28
2023-04-16T01:29:11.985Z,97837.28
2023-04-16T01:31:38.811Z,97842.94
2023-04-16T01:34:34.778Z,97842.41
2023-04-16T01:37:01.608Z,97839.22
2023-04-16T01:39:28.273Z,97833.69
2023-04-16T01:41:57.182Z,97835.03
2023-04-16T01:44:24.264Z,97834.50
2023-04-16T01:46:51.396Z,97825.97
2023-04-16T01:49:18.240Z,97821.84
2023-04-16T01:51:45.100Z,97836.63
2023-04-16T01:54:11.823Z,97841.75
2023-04-16T01:56:39.722Z,97828.72
2023-04-16T01:59:06.692Z,97828.66
2023-04-16T02:01:38.922Z,97827.31
2023-04-16T02:04:06.689Z,97839.78
2023-04-16T02:06:33.492Z,97830.53
2023-04-16T02:09:01.882Z,97834.94
2023-04-16T02:11:28.733Z,97827.66
2023-04-16T02:13:56.184Z,97836.59
2023-04-16T02:16:22.972Z,97829.09
2023-04-16T02:18:57.228Z,97826.47
2023-04-16T02:21:26.011Z,97822.78
2023-04-16T02:23:53.316Z,97815.00
2023-04-16T02:26:26.659Z,97826.16
2023-04-16T02:28:55.571Z,97832.31
2023-04-16T02:31:28.707Z,97821.22
2023-04-16T02:33:57.390Z,97825.00
2023-04-16T02:36:24.456Z,97823.25
2023-04-16T02:38:51.581Z,97829.22
2023-04-16T02:41:18.213Z,97828.38
2023-04-16T02:43:45.086Z,97827.56
2023-04-16T02:46:11.958Z,97803.53
2023-04-16T02:48:39.292Z,97821.50
2023-04-16T02:51:06.126Z,97829.34
2023-04-16T02:53:33.105Z,97820.75
2023-04-16T02:55:59.794Z,97812.44
2023-04-16T02:58:26.787Z,97826.28
2023-04-16T03:00:54.379Z,97832.41
2023-04-16T03:03:21.938Z,97813.41
2023-04-16T03:05:48.821Z,97823.16
2023-04-16T03:08:16.621Z,97817.84
2023-04-16T03:10:43.322Z,97830.38
2023-04-16T03:13:10.064Z,97833.84
2023-04-16T03:15:36.898Z,97836.53
2023-04-16T03:18:03.828Z,97829.28
2023-04-16T03:20:30.582Z,97816.50
2023-04-16T03:22:57.384Z,97833.16
2023-04-16T03:25:24.076Z,97846.06
2023-04-16T03:27:51.432Z,97841.03
2023-04-16T03:30:18.611Z,97845.50
2023-04-16T03:32:45.560Z,97845.41
2023-04-16T03:35:12.736Z,97855.94
2023-04-16T03:37:39.688Z,97851.19
2023-04-16T03:40:07.356Z,97855.03
2023-04-16T03:42:34.497Z,97857.78
2023-04-16T03:45:02.404Z,97854.84
2023-04-16T03:47:29.656Z,97846.44
2023-04-16T03:49:59.803Z,97859.38
2023-04-16T03:52:28.230Z,97863.75
2023-04-16T03:54:56.956Z,97842.63
2023-04-16T03:57:28.713Z,97866.97
2023-04-16T04:00:01.206Z,97853.69
2023-04-16T04:02:46.016Z,97855.00
2023-04-16T04:05:18.673Z,97859.91
2023-04-16T04:07:46.800Z,97860.81
2023-04-16T04:10:14.618Z,97862.00
2023-04-16T04:12:42.107Z,97860.84
2023-04-16T04:15:09.642Z,97866.94
2023-04-16T04:17:36.373Z,97874.00
2023-04-16T04:20:03.729Z,97869.59
2023-04-16T04:22:31.637Z,97871.16
2023-04-16T04:24:58.353Z,97865.22
2023-04-16T04:27:27.414Z,97868.88
2023-04-16T04:29:54.525Z,97886.31
2023-04-16T04:32:22.254Z,97885.75
2023-04-16T04:34:49.362Z,97885.56
2023-04-16T04:37:16.119Z,97891.16
2023-04-16T04:39:43.512Z,97887.22
2023-04-16T04:42:12.502Z,97887.41
2023-04-16T04:44:39.768Z,97899.00
2023-04-16T04:47:08.081Z,97891.94
2023-04-16T04:49:35.448Z,97894.97
2023-04-16T04:52:03.329Z,97897.91
2023-04-16T04:54:32.660Z,97893.19
2023-04-16T04:56:59.634Z,97902.16
2023-04-16T04:59:26.383Z,97904.88
2023-04-16T05:01:53.627Z,97908.25
2023-04-16T05:04:20.376Z,97909.19
2023-04-16T05:06:47.172Z,97904.13
2023-04-16T05:09:13.832Z,97906.53
2023-04-16T05:11:42.267Z,97912.50
2023-04-16T05:14:09.129Z,97909.94
2023-04-16T05:16:37.151Z,97917.81
2023-04-16T05:19:04.211Z,97915.25
2023-04-16T05:21:31.575Z,97917.22
2023-04-16T05:23:58.911Z,97914.84
2023-04-16T05:26:25.621Z,97914.75
2023-04-16T05:28:52.315Z,97914.00
2023-04-16T05:31:19.129Z,97918.00
2023-04-16T05:33:45.862Z,97923.03
2023-04-16T05:36:12.651Z,97924.06
2023-04-16T05:38:39.246Z,97917.25
2023-04-16T05:41:05.974Z,97917.72
2023-04-16T05:43:32.814Z,97928.19
2023-04-16T05:45:59.543Z,97936.41
2023-04-16T05:48:26.244Z,97926.09
2023-04-16T05:50:53.914Z,97939.34
2023-04-16T05:53:20.639Z,97941.56
2023-04-16T05:55:47.435Z,97942.94
2023-04-16T05:58:14.122Z,97943.75
2023-04-16T06:00:41.008Z,97943.53
2023-04-16T06:03:07.830Z,97950.03
2023-04-16T06:05:35.002Z,97933.94
2023-04-16T06:08:01.674Z,97915.81
2023-04-16T06:10:28.477Z,97949.13
2023-04-16T06:12:55.261Z,97942.97
2023-04-16T06:15:22.113Z,97940.41
2023-04-16T06:17:49.823Z,97937.56
2023-04-16T06:20:16.878Z,97937.09
2023-04-16T06:22:43.606Z,97950.00
2023-04-16T06:25:10.248Z,97940.34
2023-04-16T06:27:37.411Z,97926.91
2023-04-16T06:30:04.727Z,97921.75
2023-04-16T06:32:31.456Z,97944.50
2023-04-16T06:34:58.851Z,97945.25
2023-04-16T06:37:25.569Z,97945.97
2023-04-16T06:39:52.502Z,97941.06
2023-04-16T06:42:20.036Z,97945.19
2023-04-16T06:44:46.926Z,97954.16
2023-04-16T06:47:13.510Z,97951.38
2023-04-16T06:49:40.419Z,97934.84
2023-04-16T06:52:07.487Z,97933.31
2023-04-16T06:54:34.334Z,97948.63
2023-04-16T06:57:02.309Z,97957.47
2023-04-16T06:59:29.392Z,97944.97
2023-04-16T07:01:56.666Z,97945.06
2023-04-16T07:04:23.775Z,97937.56
2023-04-16T07:06:50.485Z,97941.03
2023-04-16T07:09:18.026Z,97940.72
2023-04-16T07:11:44.830Z,97928.66
2023-04-16T07:14:11.624Z,97947.50
2023-04-16T07:16:38.380Z,97941.41
2023-04-16T07:19:05.093Z,97935.88
2023-04-16T07:21:32.137Z,97931.44
2023-04-16T07:23:58.832Z,97935.78
2023-04-16T07:26:25.974Z,97935.97
2023-04-16T07:28:52.822Z,97937.38
2023-04-16T07:31:19.523Z,97940.59
2023-04-16T07:33:46.439Z,97934.63
2023-04-16T07:36:13.086Z,97941.81
2023-04-16T07:38:39.836Z,97939.03
2023-04-16T07:41:06.530Z,97941.72
2023-04-16T07:43:33.331Z,97933.78
2023-04-16T07:46:00.175Z,97931.03
2023-04-16T07:48:26.988Z,97936.31
2023-04-16T07:50:53.608Z,97923.06
2023-04-16T07:53:20.470Z,97921.38
2023-04-16T07:55:47.225Z,97922.81
2023-04-16T07:58:14.064Z,97916.81
2023-04-16T08:00:40.822Z,97907.53
2023-04-16T08:03:07.702Z,97927.63
2023-04-16T08:05:34.701Z,97921.19
2023-04-16T08:08:01.362Z,97922.94
2023-04-16T08:10:28.426Z,97916.16
2023-04-16T08:12:55.287Z,97915.59
2023-04-16T08:15:21.937Z,97927.53
2023-04-16T08:17:48.775Z,97926.00
2023-04-16T08:20:18.514Z,97928.13
2023-04-16T08:22:46.678Z,97927.78
2023-04-16T08:25:13.439Z,97924.25
2023-04-16T08:27:40.205Z,97929.41
2023-04-16T08:30:07.924Z,97930.84
2023-04-16T08:32:35.119Z,97923.13
2023-04-16T08:35:01.975Z,97935.31
2023-04-16T08:37:29.061Z,97934.88
2023-04-16T08:39:55.994Z,97932.94
2023-04-16T08:42:32.896Z,97932.56
2023-04-16T08:45:15.617Z,97932.69
2023-04-16T08:47:46.785Z,97934.66
2023-04-16T08:50:17.957Z,97930.19
2023-04-16T08:52:59.302Z,97931.44
2023-04-16T08:55:50.501Z,97923.19
2023-04-16T08:58:22.773Z,97927.59
2023-04-16T09:00:49.849Z,97926.56
2023-04-16T09:03:16.986Z,97933.44
2023-04-16T09:05:44.229Z,97932.06
2023-04-16T09:08:11.145Z,97934.00
2023-04-16T09:10:38.172Z,97912.72
2023-04-16T09:13:05.094Z,97923.50
2023-04-16T09:15:34.654Z,97935.41
2023-04-16T09:18:02.016Z,97926.91
2023-04-16T09:20:28.675Z,97929.69
2023-04-16T09:22:57.094Z,97912.91
2023-04-16T09:25:25.142Z,97920.47
2023-04-16T09:27:52.147Z,97925.06
2023-04-16T09:30:21.904Z,97928.75
2023-04-16T09:32:49.816Z,97922.09
2023-04-16T09:35:20.561Z,97927.78
2023-04-16T09:38:05.311Z,97921.13
2023-04-16T09:40:32.080Z,97922.47
2023-04-16T09:43:00.560Z,97924.72
2023-04-16T09:45:32.046Z,97923.72
2023-04-16T09:48:04.991Z,97925.19
2023-04-16T09:50:31.840Z,97925.28
2023-04-16T09:53:02.572Z,97924.50
2023-04-16T09:55:29.653Z,97925.88
2023-04-16T09:58:01.148Z,97924.28
2023-04-16T10:00:30.066Z,97907.78
2023-04-16T10:03:07.224Z,97927.03
2023-04-16T10:05:34.852Z,97917.91
2023-04-16T10:08:02.173Z,97927.88
2023-04-16T10:10:30.568Z,97901.78
2023-04-16T10:12:57.933Z,97907.41
2023-04-16T10:15:25.220Z,97911.53
2023-04-16T10:17:53.891Z,97916.97
2023-04-16T10:20:21.298Z,97917.47
2023-04-16T10:22:48.875Z,97910.88
2023-04-16T10:25:16.804Z,97918.28
2023-04-16T10:27:44.480Z,97897.03
2023-04-16T10:30:13.101Z,97914.38
2023-04-16T10:32:41.331Z,97910.13
2023-04-16T10:35:08.533Z,97912.72
2023-04-16T10:37:37.527Z,97907.16
2023-04-16T10:40:26.280Z,97914.75
2023-04-16T10:42:57.929Z,97898.41
2023-04-16T10:45:32.856Z,97906.06
2023-04-16T10:47:59.755Z,97898.56
2023-04-16T10:50:34.941Z,97901.97
2023-04-16T10:53:24.169Z,97906.88
2023-04-16T10:55:58.428Z,97902.63
2023-04-16T10:58:32.328Z,97897.56
2023-04-16T11:01:08.115Z,97898.50
2023-04-16T11:03:34.943Z,97894.72
2023-04-16T11:06:12.979Z,97902.53
2023-04-16T11:08:53.255Z,97895.81
2023-04-16T11:11:22.252Z,97892.22
2023-04-16T11:13:49.029Z,97891.97
2023-04-16T11:16:16.943Z,97875.28
2023-04-16T11:18:50.775Z,97884.09
2023-04-16T11:21:18.504Z,97879.91
2023-04-16T11:23:53.278Z,97887.19
2023-04-16T11:26:25.124Z,97887.19
2023-04-16T11:28:53.434Z,97883.09
2023-04-16T11:31:20.651Z,97885.19
2023-04-16T11:33:47.332Z,97887.09
2023-04-16T11:36:14.018Z,97886.22
2023-04-16T11:38:43.952Z,97886.28
2023-04-16T11:41:11.223Z,97878.13
2023-04-16T11:43:38.004Z,97874.16
2023-04-16T11:46:20.068Z,97870.94
2023-04-16T11:48:53.522Z,97853.31
2023-04-16T11:51:20.707Z,97876.84
2023-04-16T11:53:52.891Z,97869.56
2023-04-16T11:56:30.717Z,97868.44
2023-04-16T11:59:16.609Z,97872.41
2023-04-16T12:01:46.448Z,97870.34
2023-04-16T12:04:15.910Z,97866.91
2023-04-16T12:07:11.358Z,97868.22
2023-04-16T12:09:40.975Z,97848.22
2023-04-16T12:12:27.791Z,97864.19
2023-04-16T12:14:56.843Z,97867.63
2023-04-16T12:17:24.157Z,97847.63
2023-04-16T12:19:59.041Z,97832.28
2023-04-16T12:22:36.057Z,97856.97
2023-04-16T12:25:10.671Z,97859.06
2023-04-16T12:27:51.463Z,97865.72
2023-04-16T12:30:22.576Z,97863.44
2023-04-16T12:32:51.685Z,97858.22
2023-04-16T12:35:32.895Z,97858.16
2023-04-16T12:38:00.506Z,97848.97
2023-04-16T12:40:27.453Z,97849.56
2023-04-16T12:42:55.045Z,97853.13
2023-04-16T12:45:22.220Z,97857.59
2023-04-16T12:47:50.526Z,97851.00
2023-04-16T12:50:17.934Z,97853.81
2023-04-16T12:52:44.949Z,97852.81
2023-04-16T12:55:12.427Z,97855.13
2023-04-16T12:57:39.448Z,97856.25
2023-04-16T13:00:06.747Z,97855.31
2023-04-16T13:02:34.237Z,97853.00
2023-04-16T13:05:01.488Z,97847.13
2023-04-16T13:07:28.997Z,97851.22
2023-04-16T13:09:55.709Z,97848.72
2023-04-16T13:12:22.456Z,97846.41
2023-04-16T13:14:49.106Z,97847.38
2023-04-16T13:17:15.790Z,97851.00
2023-04-16T13:19:42.452Z,97858.34
2023-04-16T13:22:09.324Z,97849.75
2023-04-16T13:24:35.994Z,97849.28
2023-04-16T13:27:02.802Z,97854.94
2023-04-16T13:29:30.478Z,97864.31
2023-04-16T13:31:57.856Z,97854.13
2023-04-16T13:34:24.721Z,97858.44
2023-04-16T13:36:51.421Z,97839.03
2023-04-16T13:39:18.568Z,97855.72
2023-04-16T13:41:45.692Z,97850.09
2023-04-16T13:44:12.281Z,97851.81
2023-04-16T13:46:39.036Z,97844.25
2023-04-16T13:49:05.812Z,97842.16
2023-04-16T13:51:32.828Z,97847.34
2023-04-16T13:53:59.528Z,97849.97
2023-04-16T13:56:26.569Z,97853.13
2023-04-16T13:58:53.517Z,97853.28
2023-04-16T14:01:20.610Z,97855.56
2023-04-16T14:03:47.459Z,97858.34
2023-04-16T14:06:15.076Z,97860.56
2023-04-16T14:08:41.710Z,97839.28
2023-04-16T14:11:09.174Z,97862.47
2023-04-16T14:13:36.364Z,97846.06
2023-04-16T14:16:03.491Z,97858.75
2023-04-16T14:18:30.486Z,97860.34
2023-04-16T14:20:57.540Z,97853.50
2023-04-16T14:23:24.191Z,97858.22
2023-04-16T14:25:51.006Z,97862.88
2023-04-16T14:28:17.734Z,97861.56
2023-04-16T14:30:44.541Z,97861.84
2023-04-16T14:33:11.516Z,97864.00
2023-04-16T14:35:38.278Z,97865.16
2023-04-16T14:38:06.563Z,97858.66
2023-04-16T14:40:34.852Z,97868.72
2023-04-16T14:43:01.482Z,97871.66
2023-04-16T14:45:30.028Z,97863.91
2023-04-16T14:47:57.134Z,97861.47
2023-04-16T14:50:23.929Z,97863.72
2023-04-16T14:52:51.031Z,97860.78
2023-04-16T14:55:17.968Z,97869.56
2023-04-16T14:57:44.614Z,97867.69
2023-04-16T15:00:13.327Z,97875.94
2023-04-16T15:02:40.165Z,97876.31
2023-04-16T15:05:09.842Z,97869.31
2023-04-16T15:07:37.100Z,97878.28
2023-04-16T15:10:04.520Z,97867.97
2023-04-16T15:12:31.375Z,97881.34
2023-04-16T15:14:59.813Z,97870.81
2023-04-16T15:17:26.810Z,97874.66
2023-04-16T15:19:53.589Z,97878.28
2023-04-16T15:22:20.271Z,97883.09
2023-04-16T15:24:47.056Z,97876.50
2023-04-16T15:27:14.701Z,97881.44
2023-04-16T15:29:41.639Z,97873.34
2023-04-16T15:32:08.375Z,97878.66
2023-04-16T15:34:35.354Z,97886.09
2023-04-16T15:37:02.314Z,97881.66
2023-04-16T15:39:29.531Z,97886.72
2023-04-16T15:42:00.831Z,97880.25
2023-04-16T15:44:31.177Z,97872.16
2023-04-16T15:46:58.076Z,97889.25
2023-04-16T15:49:25.444Z,97894.44
2023-04-16T15:51:52.934Z,97887.06
2023-04-16T15:54:19.672Z,97893.88
2023-04-16T15:56:47.083Z,97890.22
2023-04-16T15:59:13.846Z,97896.81
2023-04-16T16:01:40.902Z,97895.69
2023-04-16T16:04:08.066Z,97899.81
2023-04-16T16:06:35.317Z,97886.97
2023-04-16T16:09:02.077Z,97900.88
2023-04-16T16:11:28.706Z,97901.56
2023-04-16T16:13:55.514Z,97904.41
2023-04-16T16:16:22.316Z,97907.00
2023-04-16T16:18:48.993Z,97907.50
2023-04-16T16:21:16.139Z,97917.19
2023-04-16T16:23:42.937Z,97916.06
2023-04-16T16:26:09.683Z,97918.44
2023-04-16T16:28:39.296Z,97916.78
2023-04-16T16:31:07.170Z,97918.75
2023-04-16T16:33:33.894Z,97921.00
2023-04-16T16:36:00.797Z,97918.44
2023-04-16T16:38:27.897Z,97929.34
2023-04-16T16:40:54.698Z,97936.09
2023-04-16T16:43:21.738Z,97948.41
2023-04-16T16:45:48.992Z,97937.63
2023-04-16T16:48:15.566Z,97938.72
2023-04-16T16:50:42.683Z,97942.97
2023-04-16T16:53:09.553Z,97938.59
2023-04-16T16:55:36.505Z,97945.41
2023-04-16T16:58:04.510Z,97951.56
2023-04-16T17:00:31.233Z,97941.91
2023-04-16T17:02:58.296Z,97954.78
2023-04-16T17:05:25.097Z,97951.06
2023-04-16T17:07:51.686Z,97957.88
2023-04-16T17:10:21.302Z,97956.34
2023-04-16T17:12:49.526Z,97968.84
2023-04-16T17:15:18.582Z,97974.41
2023-04-16T17:17:47.838Z,97973.66
2023-04-16T17:20:14.708Z,97970.88
2023-04-16T17:22:42.256Z,97982.63
2023-04-16T17:25:09.901Z,97983.91
2023-04-16T17:27:36.890Z,97981.44
2023-04-16T17:30:05.555Z,97990.03
2023-04-16T17:32:32.973Z,97997.97
2023-04-16T17:35:01.261Z,97998.13
2023-04-16T17:37:28.655Z,98002.91
2023-04-16T17:39:55.513Z,98002.66
2023-04-16T17:42:22.388Z,97995.41
2023-04-16T17:44:49.112Z,98019.16
2023-04-16T17:47:15.936Z,98021.22
2023-04-16T17:49:43.066Z,98023.56
2023-04-16T17:52:09.911Z,98024.91
2023-04-16T17:54:36.554Z,98027.66
2023-04-16T17:57:03.608Z,98031.47
2023-04-16T17:59:30.451Z,98031.03
2023-04-16T18:01:57.432Z,98040.16
2023-04-16T18:04:24.451Z,98039.88
2023-04-16T18:06:51.358Z,98045.47
2023-04-16T18:09:19.338Z,98057.22
2023-04-16T18:11:46.184Z,98055.78
2023-04-16T18:14:16.743Z,98060.97
2023-04-16T18:16:43.810Z,98064.41
2023-04-16T18:19:10.512Z,98061.94
2023-04-16T18:21:37.341Z,98072.69
2023-04-16T18:24:04.195Z,98074.34
2023-04-16T18:26:33.257Z,98070.81
2023-04-16T18:29:03.071Z,98072.69
2023-04-16T18:31:30.123Z,98075.41
2023-04-16T18:33:58.315Z,98077.84
2023-04-16T18:36:27.058Z,98058.00
2023-04-16T18:39:00.962Z,98095.00
2023-04-16T18:41:29.950Z,98094.59
2023-04-16T18:43:57.364Z,98081.81
2023-04-16T18:46:24.556Z,98101.78
2023-04-16T18:48:51.634Z,98098.50
2023-04-16T18:51:18.608Z,98094.13
2023-04-16T18:53:45.923Z,98103.50
2023-04-16T18:56:13.257Z,98079.31
2023-04-16T18:58:40.159Z,98101.41
2023-04-16T19:01:11.255Z,98103.00
2023-04-16T19:03:38.989Z,98103.16
2023-04-16T19:06:06.665Z,98108.31
2023-04-16T19:08:33.652Z,98107.50
2023-04-16T19:11:00.626Z,98106.00
2023-04-16T19:13:27.472Z,98119.34
2023-04-16T19:16:01.666Z,98115.59
2023-04-16T19:18:28.760Z,98107.66
2023-04-16T19:21:02.035Z,98128.03
2023-04-16T19:23:29.361Z,98134.34
2023-04-16T19:25:56.773Z,98135.94
2023-04-16T19:28:24.482Z,98120.88
2023-04-16T19:30:52.447Z,98142.91
2023-04-16T19:33:19.932Z,98140.09
2023-04-16T19:35:47.444Z,98145.50
2023-04-16T19:38:14.554Z,98148.22
2023-04-16T19:40:45.036Z,98148.63
2023-04-16T19:43:12.458Z,98153.34
2023-04-16T19:45:43.976Z,98156.91
2023-04-16T19:48:11.444Z,98160.44
2023-04-16T19:50:42.617Z,98156.78
2023-04-16T19:53:11.179Z,98158.34
2023-04-16T19:55:41.915Z,98166.22
2023-04-16T19:58:09.726Z,98151.31
2023-04-16T20:00:38.735Z,98177.03
2023-04-16T20:03:06.018Z,98168.81
2023-04-16T20:05:32.997Z,98167.75
2023-04-16T20:08:00.311Z,98176.22
2023-04-16T20:10:28.048Z,98179.06
2023-04-16T20:12:54.875Z,98155.09
2023-04-16T20:15:21.841Z,98169.47
2023-04-16T20:17:49.240Z,98167.66
2023-04-16T20:20:16.434Z,98177.91
2023-04-16T20:22:43.985Z,98177.31
2023-04-16T20:25:11.623Z,98155.25
2023-04-16T20:27:38.473Z,98178.38
2023-04-16T20:30:06.562Z,98174.25
2023-04-16T20:32:33.755Z,98181.81
2023-04-16T20:35:01.990Z,98180.66
2023-04-16T20:37:29.279Z,98182.53
2023-04-16T20:39:57.313Z,98183.72
2023-04-16T20:42:26.538Z,98165.28
2023-04-16T20:44:56.643Z,98183.59
2023-04-16T20:47:24.003Z,98169.63
2023-04-16T20:49:52.953Z,98165.41
2023-04-16T20:52:20.522Z,98163.97
2023-04-16T20:54:47.899Z,98178.56
2023-04-16T20:57:14.968Z,98181.75
2023-04-16T20:59:41.718Z,98186.31
2023-04-16T21:02:08.670Z,98163.66
2023-04-16T21:04:35.564Z,98183.47
2023-04-16T21:07:05.552Z,98176.09
2023-04-16T21:09:36.374Z,98192.19
2023-04-16T21:12:03.320Z,98175.97
2023-04-16T21:14:29.897Z,98189.13
2023-04-16T21:16:56.599Z,98193.69
2023-04-16T21:19:23.267Z,98192.06
2023-04-16T21:21:50.080Z,98194.28
2023-04-16T21:24:17.217Z,98190.75
2023-04-16T21:26:43.965Z,98195.69
2023-04-16T21:29:11.158Z,98196.50
2023-04-16T21:31:38.200Z,98197.56
2023-04-16T21:34:04.886Z,98198.03
2023-04-16T21:36:33.598Z,98198.94
2023-04-16T21:39:00.387Z,98193.66
2023-04-16T21:41:27.165Z,98201.78
2023-04-16T21:43:53.912Z,98196.84
2023-04-16T21:46:21.394Z,98195.31
2023-04-16T21:48:48.544Z,98203.91
2023-04-16T21:51:15.775Z,98194.06
2023-04-16T21:53:42.487Z,98197.72
2023-04-16T21:56:09.294Z,98198.56
2023-04-16T21:58:35.912Z,98184.69
2023-04-16T22:01:02.749Z,98192.78
2023-04-16T22:03:31.060Z,98203.34
2023-04-16T22:06:01.587Z,98198.88
2023-04-16T22:08:29.658Z,98196.19
2023-04-16T22:11:01.708Z,98187.97
2023-04-16T22:13:30.140Z,98186.66
2023-04-16T22:15:57.741Z,98194.88
2023-04-16T22:18:25.738Z,98197.88
2023-04-16T22:20:56.197Z,98193.75
2023-04-16T22:23:24.226Z,98191.53
2023-04-16T22:25:53.305Z,98189.81
2023-04-16T22:28:20.049Z,98188.78
2023-04-16T22:30:46.701Z,98191.97
2023-04-16T22:33:13.465Z,98196.47
2023-04-16T22:35:40.703Z,98192.56
2023-04-16T22:38:07.880Z,98193.41
2023-04-16T22:40:34.600Z,98188.91
2023-04-16T22:43:01.413Z,98200.81
2023-04-16T22:45:28.414Z,98193.78
2023-04-16T22:47:55.172Z,98205.00
2023-04-16T22:50:23.235Z,98198.19
2023-04-16T22:52:49.994Z,98194.88
2023-04-16T22:55:16.862Z,98196.25
2023-04-16T22:57:43.668Z,98185.13
2023-04-16T23:00:17.762Z,98190.34
2023-04-16T23:02:45.352Z,98193.03
2023-04-16T23:05:12.277Z,98200.03
2023-04-16T23:07:39.116Z,98194.88
2023-04-16T23:10:08.316Z,98196.75
2023-04-16T23:12:37.322Z,98189.25
2023-04-16T23:15:06.333Z,98187.38
2023-04-16T23:17:34.071Z,98194.63
2023-04-16T23:20:00.935Z,98190.97
2023-04-16T23:22:27.874Z,98186.78
2023-04-16T23:24:54.793Z,98187.09
2023-04-16T23:27:21.703Z,98190.41
2023-04-16T23:29:48.415Z,98186.44
2023-04-16T23:32:15.163Z,98181.81
2023-04-16T23:34:42.059Z,98177.56
2023-04-16T23:37:09.011Z,98183.75
2023-04-16T23:39:35.893Z,98187.25
2023-04-16T23:42:03.108Z,98176.75
2023-04-16T23:44:29.758Z,98180.38
2023-04-16T23:46:57.296Z,98186.41
2023-04-16T23:49:24.128Z,98182.69
2023-04-16T23:51:50.878Z,98183.84
2023-04-16T23:54:17.819Z,98175.91
2023-04-16T23:56:44.560Z,98175.69
2023-04-16T23:59:11.490Z,98172.78
